sensor_id;sensor_type;location;lat;lon;timestamp;P1;durP1;ratioP1;P2;durP2;ratioP2
70342;SDS011;57767;42.068;24.752;2023-04-03T00:00:21;3.60;;;1.20;;
70342;SDS011;57767;42.068;24.752;2023-04-03T00:01:28;1.38;;;0.90;;
70342;SDS011;57767;42.068;24.752;2023-04-03T00:02:30;1.25;;;0.93;;
70342;SDS011;57767;42.068;24.752;2023-04-03T00:03:32;1.00;;;0.90;;
70342;SDS011;57767;42.068;24.752;2023-04-03T00:04:34;1.58;;;1.02;;
70342;SDS011;57767;42.068;24.752;2023-04-03T00:05:36;2.78;;;0.80;;
70342;SDS011;57767;42.068;24.752;2023-04-03T00:06:37;0.82;;;0.77;;
70342;SDS011;57767;42.068;24.752;2023-04-03T00:07:39;1.77;;;0.95;;
70342;SDS011;57767;42.068;24.752;2023-04-03T00:08:41;1.23;;;0.90;;
70342;SDS011;57767;42.068;24.752;2023-04-03T00:09:43;1.20;;;0.68;;
70342;SDS011;57767;42.068;24.752;2023-04-03T00:10:45;1.35;;;0.80;;
70342;SDS011;57767;42.068;24.752;2023-04-03T00:11:46;2.13;;;0.80;;
70342;SDS011;57767;42.068;24.752;2023-04-03T00:12:48;1.15;;;0.95;;
70342;SDS011;57767;42.068;24.752;2023-04-03T00:13:51;0.80;;;0.70;;
70342;SDS011;57767;42.068;24.752;2023-04-03T00:14:52;1.60;;;0.75;;
70342;SDS011;57767;42.068;24.752;2023-04-03T00:15:54;1.10;;;1.00;;
70342;SDS011;57767;42.068;24.752;2023-04-03T00:16:56;1.02;;;0.93;;
70342;SDS011;57767;42.068;24.752;2023-04-03T00:17:58;1.30;;;0.73;;
70342;SDS011;57767;42.068;24.752;2023-04-03T00:19:00;3.47;;;1.10;;
70342;SDS011;57767;42.068;24.752;2023-04-03T00:20:02;1.15;;;0.95;;
70342;SDS011;57767;42.068;24.752;2023-04-03T00:21:04;1.33;;;1.00;;
70342;SDS011;57767;42.068;24.752;2023-04-03T00:22:07;0.70;;;0.70;;
70342;SDS011;57767;42.068;24.752;2023-04-03T00:23:09;1.95;;;0.98;;
70342;SDS011;57767;42.068;24.752;2023-04-03T00:24:11;1.20;;;0.88;;
70342;SDS011;57767;42.068;24.752;2023-04-03T00:25:13;1.52;;;1.10;;
70342;SDS011;57767;42.068;24.752;2023-04-03T00:26:14;1.67;;;1.33;;
70342;SDS011;57767;42.068;24.752;2023-04-03T00:27:16;1.38;;;1.20;;
70342;SDS011;57767;42.068;24.752;2023-04-03T00:28:18;1.48;;;1.25;;
70342;SDS011;57767;42.068;24.752;2023-04-03T00:29:20;1.52;;;1.30;;
70342;SDS011;57767;42.068;24.752;2023-04-03T00:30:22;1.33;;;1.10;;
70342;SDS011;57767;42.068;24.752;2023-04-03T00:31:24;2.47;;;1.30;;
70342;SDS011;57767;42.068;24.752;2023-04-03T00:32:26;1.85;;;1.20;;
70342;SDS011;57767;42.068;24.752;2023-04-03T00:33:28;1.65;;;1.20;;
70342;SDS011;57767;42.068;24.752;2023-04-03T00:34:29;1.20;;;1.08;;
70342;SDS011;57767;42.068;24.752;2023-04-03T00:35:31;1.30;;;1.17;;
70342;SDS011;57767;42.068;24.752;2023-04-03T00:36:33;1.73;;;1.25;;
70342;SDS011;57767;42.068;24.752;2023-04-03T00:37:36;1.52;;;1.20;;
70342;SDS011;57767;42.068;24.752;2023-04-03T00:38:37;1.35;;;1.10;;
70342;SDS011;57767;42.068;24.752;2023-04-03T00:39:39;2.13;;;1.10;;
70342;SDS011;57767;42.068;24.752;2023-04-03T00:40:43;1.48;;;1.02;;
70342;SDS011;57767;42.068;24.752;2023-04-03T00:41:46;1.20;;;1.10;;
70342;SDS011;57767;42.068;24.752;2023-04-03T00:42:48;2.00;;;1.05;;
70342;SDS011;57767;42.068;24.752;2023-04-03T00:43:52;1.10;;;1.00;;
70342;SDS011;57767;42.068;24.752;2023-04-03T00:45:58;1.88;;;1.30;;
70342;SDS011;57767;42.068;24.752;2023-04-03T00:47:01;2.47;;;1.10;;
70342;SDS011;57767;42.068;24.752;2023-04-03T00:48:06;2.42;;;1.00;;
70342;SDS011;57767;42.068;24.752;2023-04-03T00:49:09;1.73;;;1.55;;
70342;SDS011;57767;42.068;24.752;2023-04-03T00:50:11;2.33;;;1.58;;
70342;SDS011;57767;42.068;24.752;2023-04-03T00:51:14;4.28;;;1.58;;
70342;SDS011;57767;42.068;24.752;2023-04-03T00:52:28;3.83;;;1.35;;
70342;SDS011;57767;42.068;24.752;2023-04-03T00:53:37;2.05;;;1.42;;
70342;SDS011;57767;42.068;24.752;2023-04-03T00:54:42;2.55;;;1.50;;
70342;SDS011;57767;42.068;24.752;2023-04-03T00:55:45;1.05;;;0.95;;
70342;SDS011;57767;42.068;24.752;2023-04-03T00:56:50;3.67;;;1.30;;
70342;SDS011;57767;42.068;24.752;2023-04-03T00:57:53;1.02;;;0.90;;
70342;SDS011;57767;42.068;24.752;2023-04-03T00:59:05;2.17;;;1.10;;
70342;SDS011;57767;42.068;24.752;2023-04-03T01:00:13;1.20;;;1.00;;
70342;SDS011;57767;42.068;24.752;2023-04-03T01:01:20;1.00;;;0.88;;
70342;SDS011;57767;42.068;24.752;2023-04-03T01:02:25;2.70;;;1.20;;
70342;SDS011;57767;42.068;24.752;2023-04-03T01:03:27;1.08;;;0.93;;
70342;SDS011;57767;42.068;24.752;2023-04-03T01:04:30;1.08;;;0.98;;
70342;SDS011;57767;42.068;24.752;2023-04-03T01:05:33;1.10;;;0.80;;
70342;SDS011;57767;42.068;24.752;2023-04-03T01:06:36;2.78;;;0.90;;
70342;SDS011;57767;42.068;24.752;2023-04-03T01:07:39;1.23;;;1.00;;
70342;SDS011;57767;42.068;24.752;2023-04-03T01:08:41;0.88;;;0.77;;
70342;SDS011;57767;42.068;24.752;2023-04-03T01:09:43;1.30;;;1.00;;
70342;SDS011;57767;42.068;24.752;2023-04-03T01:10:47;1.65;;;1.00;;
70342;SDS011;57767;42.068;24.752;2023-04-03T01:11:48;1.10;;;1.00;;
70342;SDS011;57767;42.068;24.752;2023-04-03T01:12:50;1.52;;;1.13;;
70342;SDS011;57767;42.068;24.752;2023-04-03T01:13:52;2.28;;;1.20;;
70342;SDS011;57767;42.068;24.752;2023-04-03T01:15:05;2.22;;;1.55;;
70342;SDS011;57767;42.068;24.752;2023-04-03T01:16:11;1.80;;;1.30;;
70342;SDS011;57767;42.068;24.752;2023-04-03T01:17:26;1.25;;;1.05;;
70342;SDS011;57767;42.068;24.752;2023-04-03T01:18:28;2.47;;;1.40;;
70342;SDS011;57767;42.068;24.752;2023-04-03T01:19:31;1.48;;;1.05;;
70342;SDS011;57767;42.068;24.752;2023-04-03T01:24:23;3.63;;;1.02;;
70342;SDS011;57767;42.068;24.752;2023-04-03T01:25:33;1.10;;;0.95;;
70342;SDS011;57767;42.068;24.752;2023-04-03T01:26:36;1.33;;;1.00;;
70342;SDS011;57767;42.068;24.752;2023-04-03T01:27:38;1.33;;;1.00;;
70342;SDS011;57767;42.068;24.752;2023-04-03T01:28:40;1.02;;;0.93;;
70342;SDS011;57767;42.068;24.752;2023-04-03T01:29:41;1.23;;;0.82;;
70342;SDS011;57767;42.068;24.752;2023-04-03T01:32:14;1.70;;;1.00;;
70342;SDS011;57767;42.068;24.752;2023-04-03T01:33:16;4.20;;;1.00;;
70342;SDS011;57767;42.068;24.752;2023-04-03T01:34:18;1.42;;;0.80;;
70342;SDS011;57767;42.068;24.752;2023-04-03T01:35:20;1.83;;;0.93;;
70342;SDS011;57767;42.068;24.752;2023-04-03T01:36:23;3.10;;;0.80;;
70342;SDS011;57767;42.068;24.752;2023-04-03T01:37:26;3.30;;;1.10;;
70342;SDS011;57767;42.068;24.752;2023-04-03T01:38:28;1.55;;;0.88;;
70342;SDS011;57767;42.068;24.752;2023-04-03T01:39:30;2.47;;;0.95;;
70342;SDS011;57767;42.068;24.752;2023-04-03T01:40:32;0.70;;;0.70;;
70342;SDS011;57767;42.068;24.752;2023-04-03T01:41:34;1.35;;;0.93;;
70342;SDS011;57767;42.068;24.752;2023-04-03T01:42:36;0.93;;;0.80;;
70342;SDS011;57767;42.068;24.752;2023-04-03T01:43:37;1.52;;;0.90;;
70342;SDS011;57767;42.068;24.752;2023-04-03T01:44:39;1.20;;;1.10;;
70342;SDS011;57767;42.068;24.752;2023-04-03T01:45:41;0.95;;;0.80;;
70342;SDS011;57767;42.068;24.752;2023-04-03T01:46:43;2.45;;;0.90;;
70342;SDS011;57767;42.068;24.752;2023-04-03T01:47:45;1.05;;;0.95;;
70342;SDS011;57767;42.068;24.752;2023-04-03T01:48:47;2.95;;;1.00;;
70342;SDS011;57767;42.068;24.752;2023-04-03T01:49:49;1.05;;;0.95;;
70342;SDS011;57767;42.068;24.752;2023-04-03T01:50:50;1.13;;;1.00;;
70342;SDS011;57767;42.068;24.752;2023-04-03T01:51:52;1.10;;;1.00;;
70342;SDS011;57767;42.068;24.752;2023-04-03T01:52:54;2.65;;;1.10;;
70342;SDS011;57767;42.068;24.752;2023-04-03T01:53:56;0.88;;;0.80;;
70342;SDS011;57767;42.068;24.752;2023-04-03T01:54:57;1.40;;;0.77;;
70342;SDS011;57767;42.068;24.752;2023-04-03T01:55:59;1.20;;;0.90;;
70342;SDS011;57767;42.068;24.752;2023-04-03T01:57:01;1.50;;;1.00;;
70342;SDS011;57767;42.068;24.752;2023-04-03T01:58:04;0.80;;;0.80;;
70342;SDS011;57767;42.068;24.752;2023-04-03T01:59:06;1.30;;;0.90;;
70342;SDS011;57767;42.068;24.752;2023-04-03T02:00:08;1.15;;;0.90;;
70342;SDS011;57767;42.068;24.752;2023-04-03T02:01:10;1.92;;;0.80;;
70342;SDS011;57767;42.068;24.752;2023-04-03T02:02:12;1.05;;;0.90;;
70342;SDS011;57767;42.068;24.752;2023-04-03T02:03:15;3.15;;;0.90;;
70342;SDS011;57767;42.068;24.752;2023-04-03T02:04:17;1.45;;;0.80;;
70342;SDS011;57767;42.068;24.752;2023-04-03T02:05:19;1.38;;;0.80;;
70342;SDS011;57767;42.068;24.752;2023-04-03T02:06:21;2.53;;;1.65;;
70342;SDS011;57767;42.068;24.752;2023-04-03T02:07:23;2.08;;;1.50;;
70342;SDS011;57767;42.068;24.752;2023-04-03T02:08:24;3.35;;;1.45;;
70342;SDS011;57767;42.068;24.752;2023-04-03T02:09:26;1.70;;;1.40;;
70342;SDS011;57767;42.068;24.752;2023-04-03T02:10:28;2.28;;;1.33;;
70342;SDS011;57767;42.068;24.752;2023-04-03T02:11:30;2.88;;;2.58;;
70342;SDS011;57767;42.068;24.752;2023-04-03T02:12:32;4.82;;;4.25;;
70342;SDS011;57767;42.068;24.752;2023-04-03T02:13:34;5.95;;;5.25;;
70342;SDS011;57767;42.068;24.752;2023-04-03T02:14:36;7.97;;;4.90;;
70342;SDS011;57767;42.068;24.752;2023-04-03T02:15:38;5.00;;;3.60;;
70342;SDS011;57767;42.068;24.752;2023-04-03T02:16:40;4.35;;;3.63;;
70342;SDS011;57767;42.068;24.752;2023-04-03T02:17:43;2.78;;;2.50;;
70342;SDS011;57767;42.068;24.752;2023-04-03T02:18:45;2.58;;;2.10;;
70342;SDS011;57767;42.068;24.752;2023-04-03T02:19:47;2.58;;;2.33;;
70342;SDS011;57767;42.068;24.752;2023-04-03T02:20:49;3.45;;;1.75;;
70342;SDS011;57767;42.068;24.752;2023-04-03T02:21:50;4.78;;;1.90;;
70342;SDS011;57767;42.068;24.752;2023-04-03T02:22:52;2.50;;;1.85;;
70342;SDS011;57767;42.068;24.752;2023-04-03T02:23:54;2.45;;;2.25;;
70342;SDS011;57767;42.068;24.752;2023-04-03T02:24:56;3.72;;;2.20;;
70342;SDS011;57767;42.068;24.752;2023-04-03T02:26:08;16.80;;;2.67;;
70342;SDS011;57767;42.068;24.752;2023-04-03T02:27:12;3.28;;;1.77;;
70342;SDS011;57767;42.068;24.752;2023-04-03T02:28:13;1.92;;;1.60;;
70342;SDS011;57767;42.068;24.752;2023-04-03T02:29:15;1.85;;;1.50;;
70342;SDS011;57767;42.068;24.752;2023-04-03T02:30:17;2.42;;;1.98;;
70342;SDS011;57767;42.068;24.752;2023-04-03T02:31:19;1.92;;;1.67;;
70342;SDS011;57767;42.068;24.752;2023-04-03T02:32:22;2.78;;;1.90;;
70342;SDS011;57767;42.068;24.752;2023-04-03T02:33:24;3.35;;;1.90;;
70342;SDS011;57767;42.068;24.752;2023-04-03T02:34:26;2.83;;;1.80;;
70342;SDS011;57767;42.068;24.752;2023-04-03T02:35:27;2.58;;;1.90;;
70342;SDS011;57767;42.068;24.752;2023-04-03T02:36:29;3.50;;;2.38;;
70342;SDS011;57767;42.068;24.752;2023-04-03T02:37:33;3.63;;;2.10;;
70342;SDS011;57767;42.068;24.752;2023-04-03T02:38:35;3.08;;;2.10;;
70342;SDS011;57767;42.068;24.752;2023-04-03T02:39:37;2.92;;;1.90;;
70342;SDS011;57767;42.068;24.752;2023-04-03T02:40:39;2.85;;;2.05;;
70342;SDS011;57767;42.068;24.752;2023-04-03T02:41:40;5.00;;;2.30;;
70342;SDS011;57767;42.068;24.752;2023-04-03T02:42:42;3.13;;;2.17;;
70342;SDS011;57767;42.068;24.752;2023-04-03T02:43:44;2.63;;;2.10;;
70342;SDS011;57767;42.068;24.752;2023-04-03T02:44:46;2.63;;;2.10;;
70342;SDS011;57767;42.068;24.752;2023-04-03T02:45:47;4.07;;;2.20;;
70342;SDS011;57767;42.068;24.752;2023-04-03T02:46:49;3.22;;;2.30;;
70342;SDS011;57767;42.068;24.752;2023-04-03T02:47:51;4.32;;;2.47;;
70342;SDS011;57767;42.068;24.752;2023-04-03T02:48:53;3.63;;;1.83;;
70342;SDS011;57767;42.068;24.752;2023-04-03T02:49:55;2.35;;;1.83;;
70342;SDS011;57767;42.068;24.752;2023-04-03T02:50:57;2.83;;;1.63;;
70342;SDS011;57767;42.068;24.752;2023-04-03T02:51:58;6.03;;;2.40;;
70342;SDS011;57767;42.068;24.752;2023-04-03T02:53:01;3.58;;;2.22;;
70342;SDS011;57767;42.068;24.752;2023-04-03T02:54:02;5.70;;;2.17;;
70342;SDS011;57767;42.068;24.752;2023-04-03T02:55:04;3.58;;;1.70;;
70342;SDS011;57767;42.068;24.752;2023-04-03T02:56:06;2.90;;;2.17;;
70342;SDS011;57767;42.068;24.752;2023-04-03T02:57:08;2.60;;;1.88;;
70342;SDS011;57767;42.068;24.752;2023-04-03T02:58:10;3.78;;;2.30;;
70342;SDS011;57767;42.068;24.752;2023-04-03T02:59:12;3.22;;;2.45;;
70342;SDS011;57767;42.068;24.752;2023-04-03T03:00:14;4.63;;;2.40;;
70342;SDS011;57767;42.068;24.752;2023-04-03T03:01:17;7.55;;;2.70;;
70342;SDS011;57767;42.068;24.752;2023-04-03T03:02:19;5.00;;;2.53;;
70342;SDS011;57767;42.068;24.752;2023-04-03T03:03:21;3.83;;;2.55;;
70342;SDS011;57767;42.068;24.752;2023-04-03T03:04:23;4.68;;;2.30;;
70342;SDS011;57767;42.068;24.752;2023-04-03T03:05:25;3.47;;;2.10;;
70342;SDS011;57767;42.068;24.752;2023-04-03T03:06:27;4.05;;;2.08;;
70342;SDS011;57767;42.068;24.752;2023-04-03T03:07:29;4.05;;;1.88;;
70342;SDS011;57767;42.068;24.752;2023-04-03T03:08:31;3.50;;;2.20;;
70342;SDS011;57767;42.068;24.752;2023-04-03T03:09:33;3.40;;;2.20;;
70342;SDS011;57767;42.068;24.752;2023-04-03T03:10:35;3.03;;;1.75;;
70342;SDS011;57767;42.068;24.752;2023-04-03T03:11:37;3.63;;;1.85;;
70342;SDS011;57767;42.068;24.752;2023-04-03T03:12:39;2.05;;;1.65;;
70342;SDS011;57767;42.068;24.752;2023-04-03T03:13:43;2.92;;;2.38;;
70342;SDS011;57767;42.068;24.752;2023-04-03T03:14:46;3.45;;;2.47;;
70342;SDS011;57767;42.068;24.752;2023-04-03T03:15:47;3.78;;;3.22;;
70342;SDS011;57767;42.068;24.752;2023-04-03T03:16:49;3.67;;;3.30;;
70342;SDS011;57767;42.068;24.752;2023-04-03T03:17:51;7.07;;;3.65;;
70342;SDS011;57767;42.068;24.752;2023-04-03T03:18:53;5.28;;;3.33;;
70342;SDS011;57767;42.068;24.752;2023-04-03T03:19:55;6.70;;;4.43;;
70342;SDS011;57767;42.068;24.752;2023-04-03T03:20:57;10.23;;;4.55;;
70342;SDS011;57767;42.068;24.752;2023-04-03T03:22:01;5.57;;;4.20;;
70342;SDS011;57767;42.068;24.752;2023-04-03T03:23:03;5.53;;;4.18;;
70342;SDS011;57767;42.068;24.752;2023-04-03T03:24:05;4.90;;;3.40;;
70342;SDS011;57767;42.068;24.752;2023-04-03T03:25:07;2.40;;;2.10;;
70342;SDS011;57767;42.068;24.752;2023-04-03T03:26:10;3.60;;;1.95;;
70342;SDS011;57767;42.068;24.752;2023-04-03T03:27:12;6.57;;;1.85;;
70342;SDS011;57767;42.068;24.752;2023-04-03T03:28:14;3.63;;;2.28;;
70342;SDS011;57767;42.068;24.752;2023-04-03T03:29:16;2.50;;;1.80;;
70342;SDS011;57767;42.068;24.752;2023-04-03T03:30:17;7.00;;;2.22;;
70342;SDS011;57767;42.068;24.752;2023-04-03T03:31:19;2.25;;;1.52;;
70342;SDS011;57767;42.068;24.752;2023-04-03T03:32:21;1.95;;;1.50;;
70342;SDS011;57767;42.068;24.752;2023-04-03T03:33:23;3.47;;;1.90;;
70342;SDS011;57767;42.068;24.752;2023-04-03T03:34:26;2.47;;;1.80;;
70342;SDS011;57767;42.068;24.752;2023-04-03T03:35:28;2.35;;;1.60;;
70342;SDS011;57767;42.068;24.752;2023-04-03T03:36:29;6.10;;;1.70;;
70342;SDS011;57767;42.068;24.752;2023-04-03T03:37:32;1.92;;;1.60;;
70342;SDS011;57767;42.068;24.752;2023-04-03T03:38:33;2.38;;;1.60;;
70342;SDS011;57767;42.068;24.752;2023-04-03T03:39:35;1.65;;;1.33;;
70342;SDS011;57767;42.068;24.752;2023-04-03T03:40:37;2.35;;;2.00;;
70342;SDS011;57767;42.068;24.752;2023-04-03T03:41:39;1.75;;;1.55;;
70342;SDS011;57767;42.068;24.752;2023-04-03T03:42:40;5.72;;;1.58;;
70342;SDS011;57767;42.068;24.752;2023-04-03T03:43:42;1.73;;;1.52;;
70342;SDS011;57767;42.068;24.752;2023-04-03T03:44:44;1.98;;;1.55;;
70342;SDS011;57767;42.068;24.752;2023-04-03T03:45:49;3.88;;;1.20;;
70342;SDS011;57767;42.068;24.752;2023-04-03T03:46:52;3.38;;;1.20;;
70342;SDS011;57767;42.068;24.752;2023-04-03T03:47:54;1.33;;;1.10;;
70342;SDS011;57767;42.068;24.752;2023-04-03T03:48:56;1.52;;;1.15;;
70342;SDS011;57767;42.068;24.752;2023-04-03T03:49:58;1.75;;;1.23;;
70342;SDS011;57767;42.068;24.752;2023-04-03T03:50:59;2.25;;;1.30;;
70342;SDS011;57767;42.068;24.752;2023-04-03T03:52:01;4.28;;;1.13;;
70342;SDS011;57767;42.068;24.752;2023-04-03T03:53:03;3.10;;;1.38;;
70342;SDS011;57767;42.068;24.752;2023-04-03T03:54:05;1.80;;;1.38;;
70342;SDS011;57767;42.068;24.752;2023-04-03T03:55:07;1.45;;;1.20;;
70342;SDS011;57767;42.068;24.752;2023-04-03T03:56:09;2.22;;;1.50;;
70342;SDS011;57767;42.068;24.752;2023-04-03T03:57:11;2.58;;;1.30;;
70342;SDS011;57767;42.068;24.752;2023-04-03T03:58:14;2.92;;;1.08;;
70342;SDS011;57767;42.068;24.752;2023-04-03T03:59:16;3.60;;;1.48;;
70342;SDS011;57767;42.068;24.752;2023-04-03T04:00:18;1.35;;;1.23;;
70342;SDS011;57767;42.068;24.752;2023-04-03T04:01:19;4.35;;;1.48;;
70342;SDS011;57767;42.068;24.752;2023-04-03T04:02:21;1.80;;;1.42;;
70342;SDS011;57767;42.068;24.752;2023-04-03T04:03:23;3.03;;;1.45;;
70342;SDS011;57767;42.068;24.752;2023-04-03T04:04:25;2.75;;;1.65;;
70342;SDS011;57767;42.068;24.752;2023-04-03T04:05:27;2.95;;;1.77;;
70342;SDS011;57767;42.068;24.752;2023-04-03T04:06:29;1.95;;;1.35;;
70342;SDS011;57767;42.068;24.752;2023-04-03T04:07:31;3.35;;;1.60;;
70342;SDS011;57767;42.068;24.752;2023-04-03T04:08:33;2.80;;;1.30;;
70342;SDS011;57767;42.068;24.752;2023-04-03T04:09:34;3.10;;;1.20;;
70342;SDS011;57767;42.068;24.752;2023-04-03T04:10:36;1.10;;;1.00;;
70342;SDS011;57767;42.068;24.752;2023-04-03T04:11:39;1.10;;;1.00;;
70342;SDS011;57767;42.068;24.752;2023-04-03T04:12:41;1.60;;;1.00;;
70342;SDS011;57767;42.068;24.752;2023-04-03T04:13:43;1.48;;;0.88;;
70342;SDS011;57767;42.068;24.752;2023-04-03T04:14:45;3.35;;;1.08;;
70342;SDS011;57767;42.068;24.752;2023-04-03T04:15:48;2.40;;;1.13;;
70342;SDS011;57767;42.068;24.752;2023-04-03T04:16:49;5.95;;;1.60;;
70342;SDS011;57767;42.068;24.752;2023-04-03T04:17:52;10.00;;;1.92;;
70342;SDS011;57767;42.068;24.752;2023-04-03T04:18:54;7.28;;;1.60;;
70342;SDS011;57767;42.068;24.752;2023-04-03T04:19:56;3.75;;;1.55;;
70342;SDS011;57767;42.068;24.752;2023-04-03T04:20:58;4.10;;;1.30;;
70342;SDS011;57767;42.068;24.752;2023-04-03T04:22:00;2.17;;;1.33;;
70342;SDS011;57767;42.068;24.752;2023-04-03T04:23:01;3.60;;;1.33;;
70342;SDS011;57767;42.068;24.752;2023-04-03T04:24:03;7.00;;;1.63;;
70342;SDS011;57767;42.068;24.752;2023-04-03T04:25:05;3.30;;;1.70;;
70342;SDS011;57767;42.068;24.752;2023-04-03T04:26:07;2.35;;;1.55;;
70342;SDS011;57767;42.068;24.752;2023-04-03T04:27:09;3.33;;;1.67;;
70342;SDS011;57767;42.068;24.752;2023-04-03T04:28:11;3.95;;;1.85;;
70342;SDS011;57767;42.068;24.752;2023-04-03T04:29:14;9.55;;;1.90;;
70342;SDS011;57767;42.068;24.752;2023-04-03T04:30:15;1.88;;;1.60;;
70342;SDS011;57767;42.068;24.752;2023-04-03T04:31:17;6.70;;;2.00;;
70342;SDS011;57767;42.068;24.752;2023-04-03T04:32:19;2.20;;;1.50;;
70342;SDS011;57767;42.068;24.752;2023-04-03T04:33:21;3.80;;;1.80;;
70342;SDS011;57767;42.068;24.752;2023-04-03T04:34:22;3.10;;;2.10;;
70342;SDS011;57767;42.068;24.752;2023-04-03T04:35:24;4.00;;;2.35;;
70342;SDS011;57767;42.068;24.752;2023-04-03T04:36:26;6.50;;;2.22;;
70342;SDS011;57767;42.068;24.752;2023-04-03T04:37:28;5.40;;;2.58;;
70342;SDS011;57767;42.068;24.752;2023-04-03T04:38:30;3.72;;;2.15;;
70342;SDS011;57767;42.068;24.752;2023-04-03T04:39:31;6.68;;;2.17;;
70342;SDS011;57767;42.068;24.752;2023-04-03T04:40:33;3.58;;;2.25;;
70342;SDS011;57767;42.068;24.752;2023-04-03T04:41:36;2.95;;;1.65;;
70342;SDS011;57767;42.068;24.752;2023-04-03T04:42:37;4.60;;;2.10;;
70342;SDS011;57767;42.068;24.752;2023-04-03T04:43:39;3.95;;;1.75;;
70342;SDS011;57767;42.068;24.752;2023-04-03T04:44:41;3.92;;;1.65;;
70342;SDS011;57767;42.068;24.752;2023-04-03T04:45:43;5.10;;;1.90;;
70342;SDS011;57767;42.068;24.752;2023-04-03T04:46:44;6.60;;;2.10;;
70342;SDS011;57767;42.068;24.752;2023-04-03T04:47:46;6.03;;;2.00;;
70342;SDS011;57767;42.068;24.752;2023-04-03T04:48:48;3.00;;;1.58;;
70342;SDS011;57767;42.068;24.752;2023-04-03T04:49:50;3.05;;;1.85;;
70342;SDS011;57767;42.068;24.752;2023-04-03T04:50:52;4.75;;;2.30;;
70342;SDS011;57767;42.068;24.752;2023-04-03T04:51:54;2.08;;;1.77;;
70342;SDS011;57767;42.068;24.752;2023-04-03T04:52:56;4.68;;;1.60;;
70342;SDS011;57767;42.068;24.752;2023-04-03T04:53:57;7.25;;;2.28;;
70342;SDS011;57767;42.068;24.752;2023-04-03T04:54:59;13.98;;;2.13;;
70342;SDS011;57767;42.068;24.752;2023-04-03T04:56:01;4.40;;;2.22;;
70342;SDS011;57767;42.068;24.752;2023-04-03T04:57:03;7.10;;;2.22;;
70342;SDS011;57767;42.068;24.752;2023-04-03T04:58:08;3.88;;;2.50;;
70342;SDS011;57767;42.068;24.752;2023-04-03T04:59:09;4.85;;;2.20;;
70342;SDS011;57767;42.068;24.752;2023-04-03T05:00:11;4.28;;;2.50;;
70342;SDS011;57767;42.068;24.752;2023-04-03T05:01:14;3.15;;;2.22;;
70342;SDS011;57767;42.068;24.752;2023-04-03T05:02:16;5.28;;;2.22;;
70342;SDS011;57767;42.068;24.752;2023-04-03T05:03:18;4.25;;;2.28;;
70342;SDS011;57767;42.068;24.752;2023-04-03T05:04:20;3.63;;;2.35;;
70342;SDS011;57767;42.068;24.752;2023-04-03T05:05:22;8.35;;;2.40;;
70342;SDS011;57767;42.068;24.752;2023-04-03T05:06:24;6.50;;;2.50;;
70342;SDS011;57767;42.068;24.752;2023-04-03T05:07:26;6.68;;;2.28;;
70342;SDS011;57767;42.068;24.752;2023-04-03T05:08:28;2.47;;;2.08;;
70342;SDS011;57767;42.068;24.752;2023-04-03T05:09:29;5.10;;;2.00;;
70342;SDS011;57767;42.068;24.752;2023-04-03T05:10:31;5.80;;;2.40;;
70342;SDS011;57767;42.068;24.752;2023-04-03T05:11:33;2.45;;;2.20;;
70342;SDS011;57767;42.068;24.752;2023-04-03T05:12:35;4.88;;;2.55;;
70342;SDS011;57767;42.068;24.752;2023-04-03T05:13:37;4.60;;;2.72;;
70342;SDS011;57767;42.068;24.752;2023-04-03T05:14:38;10.25;;;3.00;;
70342;SDS011;57767;42.068;24.752;2023-04-03T05:15:40;4.32;;;3.10;;
70342;SDS011;57767;42.068;24.752;2023-04-03T05:16:42;5.30;;;2.80;;
70342;SDS011;57767;42.068;24.752;2023-04-03T05:17:44;7.18;;;2.55;;
70342;SDS011;57767;42.068;24.752;2023-04-03T05:18:46;6.25;;;3.15;;
70342;SDS011;57767;42.068;24.752;2023-04-03T05:19:48;3.22;;;2.47;;
70342;SDS011;57767;42.068;24.752;2023-04-03T05:20:50;6.68;;;2.85;;
70342;SDS011;57767;42.068;24.752;2023-04-03T05:21:54;5.85;;;3.00;;
70342;SDS011;57767;42.068;24.752;2023-04-03T05:22:56;4.15;;;2.70;;
70342;SDS011;57767;42.068;24.752;2023-04-03T05:23:58;7.53;;;2.33;;
70342;SDS011;57767;42.068;24.752;2023-04-03T05:25:00;4.15;;;2.60;;
70342;SDS011;57767;42.068;24.752;2023-04-03T05:26:02;5.07;;;2.50;;
70342;SDS011;57767;42.068;24.752;2023-04-03T05:27:04;3.15;;;2.45;;
70342;SDS011;57767;42.068;24.752;2023-04-03T05:28:06;7.43;;;2.47;;
70342;SDS011;57767;42.068;24.752;2023-04-03T05:29:08;5.25;;;2.65;;
70342;SDS011;57767;42.068;24.752;2023-04-03T05:30:10;5.80;;;2.85;;
70342;SDS011;57767;42.068;24.752;2023-04-03T05:31:12;11.05;;;2.83;;
70342;SDS011;57767;42.068;24.752;2023-04-03T05:32:14;4.32;;;2.60;;
70342;SDS011;57767;42.068;24.752;2023-04-03T05:33:16;4.75;;;2.80;;
70342;SDS011;57767;42.068;24.752;2023-04-03T05:34:18;5.10;;;3.00;;
70342;SDS011;57767;42.068;24.752;2023-04-03T05:35:20;4.45;;;2.85;;
70342;SDS011;57767;42.068;24.752;2023-04-03T05:36:22;7.00;;;2.90;;
70342;SDS011;57767;42.068;24.752;2023-04-03T05:37:24;5.25;;;2.97;;
70342;SDS011;57767;42.068;24.752;2023-04-03T05:38:26;6.60;;;2.97;;
70342;SDS011;57767;42.068;24.752;2023-04-03T05:39:28;6.07;;;2.53;;
70342;SDS011;57767;42.068;24.752;2023-04-03T05:40:30;5.97;;;2.85;;
70342;SDS011;57767;42.068;24.752;2023-04-03T05:41:31;6.57;;;3.08;;
70342;SDS011;57767;42.068;24.752;2023-04-03T05:42:33;4.63;;;2.97;;
70342;SDS011;57767;42.068;24.752;2023-04-03T05:43:36;6.50;;;2.80;;
70342;SDS011;57767;42.068;24.752;2023-04-03T05:44:40;7.80;;;2.78;;
70342;SDS011;57767;42.068;24.752;2023-04-03T05:45:42;6.38;;;2.80;;
70342;SDS011;57767;42.068;24.752;2023-04-03T05:46:47;3.78;;;2.40;;
70342;SDS011;57767;42.068;24.752;2023-04-03T05:47:48;10.82;;;2.30;;
70342;SDS011;57767;42.068;24.752;2023-04-03T05:48:50;4.18;;;2.28;;
70342;SDS011;57767;42.068;24.752;2023-04-03T05:49:52;7.40;;;3.00;;
70342;SDS011;57767;42.068;24.752;2023-04-03T05:50:54;6.13;;;3.38;;
70342;SDS011;57767;42.068;24.752;2023-04-03T05:51:57;5.72;;;3.15;;
70342;SDS011;57767;42.068;24.752;2023-04-03T05:52:59;4.57;;;2.67;;
70342;SDS011;57767;42.068;24.752;2023-04-03T05:54:11;4.20;;;2.70;;
70342;SDS011;57767;42.068;24.752;2023-04-03T05:55:17;5.55;;;2.92;;
70342;SDS011;57767;42.068;24.752;2023-04-03T05:56:19;9.65;;;3.25;;
70342;SDS011;57767;42.068;24.752;2023-04-03T05:57:21;9.13;;;2.47;;
70342;SDS011;57767;42.068;24.752;2023-04-03T05:58:24;4.40;;;2.83;;
70342;SDS011;57767;42.068;24.752;2023-04-03T05:59:25;6.53;;;2.90;;
70342;SDS011;57767;42.068;24.752;2023-04-03T06:00:27;3.47;;;2.40;;
70342;SDS011;57767;42.068;24.752;2023-04-03T06:01:29;6.10;;;2.53;;
70342;SDS011;57767;42.068;24.752;2023-04-03T06:02:31;6.32;;;3.08;;
70342;SDS011;57767;42.068;24.752;2023-04-03T06:03:33;4.03;;;2.40;;
70342;SDS011;57767;42.068;24.752;2023-04-03T06:04:37;4.78;;;2.60;;
70342;SDS011;57767;42.068;24.752;2023-04-03T06:05:39;6.70;;;2.47;;
70342;SDS011;57767;42.068;24.752;2023-04-03T06:06:52;3.42;;;2.40;;
70342;SDS011;57767;42.068;24.752;2023-04-03T06:07:55;3.20;;;2.17;;
70342;SDS011;57767;42.068;24.752;2023-04-03T06:08:59;5.53;;;2.47;;
70342;SDS011;57767;42.068;24.752;2023-04-03T06:10:04;11.65;;;5.07;;
70342;SDS011;57767;42.068;24.752;2023-04-03T06:11:06;10.05;;;4.82;;
70342;SDS011;57767;42.068;24.752;2023-04-03T06:12:09;10.55;;;4.85;;
70342;SDS011;57767;42.068;24.752;2023-04-03T06:13:12;11.80;;;4.63;;
70342;SDS011;57767;42.068;24.752;2023-04-03T06:14:14;11.65;;;4.32;;
70342;SDS011;57767;42.068;24.752;2023-04-03T06:15:16;10.38;;;3.97;;
70342;SDS011;57767;42.068;24.752;2023-04-03T06:16:18;7.20;;;3.65;;